Time;durP1;ratioP1;P1;durP2;ratioP2;P2;SDS_P1;SDS_P2;PMS_P1;PMS_P2;Temp;Humidity;BMP_temperature;BMP_pressure;BME280_temperature;BME280_humidity;BME280_pressure;Samples;Min_cycle;Max_cycle;Signal;HPM_P1;HPM_P2
2023/10/28 00:00:17;;;;;;;3.45;1.50;;;;;;;;;;5054477;28;20036;-60
2023/10/28 00:02:43;;;;;;;3.03;1.60;;;;;;;;;;5052657;28;20061;-61
2023/10/28 00:05:08;;;;;;;2.42;1.30;;;;;;;;;;5053827;28;20135;-61
2023/10/28 00:07:34;;;;;;;2.83;1.40;;;;;;;;;;5054050;28;20747;-60
2023/10/28 00:09:59;;;;;;;3.15;1.55;;;;;;;;;;5051605;28;20053;-60
2023/10/28 00:12:25;;;;;;;2.67;1.33;;;;;;;;;;5050755;28;20037;-61
2023/10/28 00:14:51;;;;;;;2.78;1.30;;;;;;;;;;5054780;28;20498;-61
2023/10/28 00:17:17;;;;;;;3.40;1.23;;;;;;;;;;5052376;28;20094;-60
2023/10/28 00:19:43;;;;;;;3.22;1.40;;;;;;;;;;5054464;28;20061;-60
2023/10/28 00:22:08;;;;;;;2.80;1.23;;;;;;;;;;5055615;28;20109;-60
2023/10/28 00:24:34;;;;;;;2.88;1.40;;;;;;;;;;5058695;28;20091;-60
2023/10/28 00:26:59;;;;;;;2.47;1.20;;;;;;;;;;5057534;28;20029;-61
2023/10/28 00:29:25;;;;;;;2.42;1.20;;;;;;;;;;5057983;28;20078;-59
2023/10/28 00:31:51;;;;;;;2.78;1.23;;;;;;;;;;5058747;28;20090;-60
2023/10/28 00:34:17;;;;;;;2.75;1.35;;;;;;;;;;5055721;28;20045;-60
2023/10/28 00:36:42;;;;;;;2.47;1.20;;;;;;;;;;5057425;28;20064;-60
2023/10/28 00:39:08;;;;;;;2.85;1.15;;;;;;;;;;5058292;28;20056;-61
2023/10/28 00:41:35;;;;;;;3.60;1.10;;;;;;;;;;5056281;28;20071;-60
2023/10/28 00:44:01;;;;;;;2.60;1.23;;;;;;;;;;5054841;28;20132;-59
2023/10/28 00:46:28;;;;;;;2.40;1.02;;;;;;;;;;5059962;28;20063;-60
2023/10/28 00:48:54;;;;;;;3.47;1.50;;;;;;;;;;5056622;28;20470;-61
2023/10/28 00:51:19;;;;;;;2.42;1.08;;;;;;;;;;5058727;28;20046;-60
2023/10/28 00:53:45;;;;;;;2.58;1.05;;;;;;;;;;5054066;28;20124;-61
2023/10/28 00:56:12;;;;;;;2.78;1.27;;;;;;;;;;5057300;28;20052;-60
2023/10/28 00:58:39;;;;;;;2.67;1.15;;;;;;;;;;5056597;28;20052;-60
2023/10/28 01:01:06;;;;;;;2.63;1.10;;;;;;;;;;5056896;28;20061;-60
2023/10/28 01:03:31;;;;;;;3.33;1.23;;;;;;;;;;5056930;28;20102;-60
2023/10/28 01:05:57;;;;;;;2.85;1.25;;;;;;;;;;5053574;28;20097;-60
2023/10/28 01:08:23;;;;;;;3.97;1.15;;;;;;;;;;5058985;28;20036;-61
2023/10/28 01:10:48;;;;;;;2.45;1.20;;;;;;;;;;5054050;28;20048;-60
2023/10/28 01:13:14;;;;;;;2.38;1.00;;;;;;;;;;5055858;28;20121;-59
2023/10/28 01:15:39;;;;;;;2.60;1.10;;;;;;;;;;5056723;28;20029;-61
2023/10/28 01:18:05;;;;;;;2.78;1.15;;;;;;;;;;5055568;28;20037;-61
2023/10/28 01:20:31;;;;;;;2.00;0.82;;;;;;;;;;5060975;28;20071;-60
2023/10/28 01:22:58;;;;;;;2.40;1.10;;;;;;;;;;5056505;28;20099;-59
2023/10/28 01:25:25;;;;;;;2.33;0.93;;;;;;;;;;5056904;28;20466;-60
2023/10/28 01:27:50;;;;;;;1.90;0.90;;;;;;;;;;5054824;28;20071;-60
2023/10/28 01:30:16;;;;;;;2.13;1.10;;;;;;;;;;5058285;28;20036;-60
2023/10/28 01:32:42;;;;;;;2.53;1.20;;;;;;;;;;5052604;28;20048;-61
2023/10/28 01:35:12;;;;;;;2.40;1.05;;;;;;;;;;5056240;28;20072;-61
2023/10/28 01:37:38;;;;;;;2.42;1.10;;;;;;;;;;5054073;28;20061;-60
2023/10/28 01:40:09;;;;;;;2.55;1.10;;;;;;;;;;5053482;28;20099;-61
2023/10/28 01:42:37;;;;;;;2.50;1.20;;;;;;;;;;5055373;28;20166;-60
2023/10/28 01:45:03;;;;;;;2.55;1.10;;;;;;;;;;5052307;28;20718;-61
2023/10/28 01:47:29;;;;;;;2.40;1.00;;;;;;;;;;5055706;28;20843;-59
2023/10/28 01:49:58;;;;;;;2.40;1.05;;;;;;;;;;5057512;28;20060;-60
2023/10/28 01:52:24;;;;;;;2.50;1.27;;;;;;;;;;5054098;28;20080;-60
2023/10/28 01:54:51;;;;;;;2.05;0.90;;;;;;;;;;5055604;28;20616;-59
2023/10/28 01:57:17;;;;;;;1.80;0.85;;;;;;;;;;5051272;28;22471;-59
2023/10/28 01:59:44;;;;;;;1.98;0.90;;;;;;;;;;5057255;28;20094;-60
2023/10/28 02:02:09;;;;;;;2.28;1.15;;;;;;;;;;5055733;28;20156;-61
2023/10/28 02:04:35;;;;;;;4.43;1.20;;;;;;;;;;5055779;28;20029;-60
2023/10/28 02:07:01;;;;;;;2.22;1.00;;;;;;;;;;5056665;28;20493;-60
2023/10/28 02:09:27;;;;;;;1.92;0.95;;;;;;;;;;5021675;28;994522;-61
2023/10/28 02:11:53;;;;;;;2.17;0.88;;;;;;;;;;5053813;28;20076;-61
2023/10/28 02:14:20;;;;;;;1.80;0.77;;;;;;;;;;5055237;28;20470;-61
2023/10/28 02:16:45;;;;;;;1.92;0.90;;;;;;;;;;5056740;28;20068;-60
2023/10/28 02:19:11;;;;;;;2.30;0.90;;;;;;;;;;5056812;28;20037;-61
2023/10/28 02:21:36;;;;;;;2.10;0.93;;;;;;;;;;5056308;28;20041;-61
2023/10/28 02:24:03;;;;;;;2.17;0.90;;;;;;;;;;5052620;28;20500;-61
2023/10/28 02:26:29;;;;;;;2.03;0.93;;;;;;;;;;5057285;28;20520;-61
2023/10/28 02:28:54;;;;;;;1.92;0.85;;;;;;;;;;5056536;28;20029;-61
2023/10/28 02:31:20;;;;;;;2.20;1.02;;;;;;;;;;5054285;28;20440;-60
2023/10/28 02:33:45;;;;;;;1.90;0.90;;;;;;;;;;5053348;28;20111;-61
2023/10/28 02:36:12;;;;;;;1.90;0.70;;;;;;;;;;5055413;28;20098;-60
2023/10/28 02:38:38;;;;;;;2.10;1.00;;;;;;;;;;5058114;28;21899;-61
2023/10/28 02:41:07;;;;;;;2.72;0.90;;;;;;;;;;5052494;28;20044;-61
2023/10/28 02:43:35;;;;;;;2.10;1.00;;;;;;;;;;5056421;28;20067;-61
2023/10/28 02:46:03;;;;;;;2.40;1.00;;;;;;;;;;5053557;28;20115;-60
2023/10/28 02:48:29;;;;;;;2.67;0.90;;;;;;;;;;5054952;28;20516;-60
2023/10/28 02:50:54;;;;;;;2.10;0.90;;;;;;;;;;5056005;28;20653;-60
2023/10/28 02:53:20;;;;;;;1.70;0.82;;;;;;;;;;5054380;28;20047;-60
2023/10/28 02:55:45;;;;;;;3.42;1.05;;;;;;;;;;5056430;28;20658;-60
2023/10/28 02:58:12;;;;;;;1.83;0.93;;;;;;;;;;5052408;28;20041;-61
2023/10/28 03:00:37;;;;;;;2.28;1.00;;;;;;;;;;5054805;28;20153;-61
2023/10/28 03:03:03;;;;;;;2.20;1.10;;;;;;;;;;5052842;28;20467;-61
2023/10/28 03:05:29;;;;;;;2.15;1.00;;;;;;;;;;5053969;28;20052;-60
2023/10/28 03:07:55;;;;;;;1.70;0.70;;;;;;;;;;5054748;28;20595;-60
2023/10/28 03:10:20;;;;;;;2.00;0.90;;;;;;;;;;5053284;28;20040;-61
2023/10/28 03:12:46;;;;;;;2.08;0.70;;;;;;;;;;5052569;28;20429;-61
2023/10/28 03:15:12;;;;;;;2.30;0.80;;;;;;;;;;5054756;28;20047;-61
2023/10/28 03:17:38;;;;;;;2.03;0.80;;;;;;;;;;5054145;28;20390;-60
2023/10/28 03:20:05;;;;;;;2.08;0.80;;;;;;;;;;5055490;28;20056;-60
2023/10/28 03:22:30;;;;;;;2.00;0.70;;;;;;;;;;5055411;28;20076;-60
2023/10/28 03:24:56;;;;;;;2.20;1.00;;;;;;;;;;5054692;28;20033;-60
2023/10/28 03:27:22;;;;;;;2.15;0.98;;;;;;;;;;5053892;28;20041;-61
2023/10/28 03:29:49;;;;;;;1.90;0.70;;;;;;;;;;5052166;28;20074;-61
2023/10/28 03:32:15;;;;;;;2.10;0.70;;;;;;;;;;5054523;28;20064;-60
2023/10/28 03:34:40;;;;;;;2.22;0.88;;;;;;;;;;5054461;28;20111;-60
2023/10/28 03:37:06;;;;;;;1.88;0.80;;;;;;;;;;5052968;28;20060;-61
2023/10/28 03:39:32;;;;;;;1.80;0.80;;;;;;;;;;5053143;28;20059;-59
2023/10/28 03:41:57;;;;;;;1.65;0.80;;;;;;;;;;5051395;28;20036;-60
2023/10/28 03:44:23;;;;;;;3.90;0.80;;;;;;;;;;5049691;28;20525;-61
2023/10/28 03:46:49;;;;;;;1.77;0.90;;;;;;;;;;5049138;28;20082;-60
2023/10/28 03:49:15;;;;;;;1.73;0.90;;;;;;;;;;5052150;28;20657;-59
2023/10/28 03:51:40;;;;;;;1.60;0.70;;;;;;;;;;5054147;28;20041;-61
2023/10/28 03:54:07;;;;;;;1.70;0.70;;;;;;;;;;5053332;28;20063;-61
2023/10/28 03:56:32;;;;;;;1.70;0.73;;;;;;;;;;5054626;28;20068;-60
2023/10/28 03:58:58;;;;;;;2.35;0.73;;;;;;;;;;5056158;28;20193;-61
2023/10/28 04:01:23;;;;;;;1.55;0.70;;;;;;;;;;5055122;28;20083;-61
2023/10/28 04:03:49;;;;;;;2.03;0.90;;;;;;;;;;5053765;28;20486;-61
2023/10/28 04:06:15;;;;;;;1.75;0.75;;;;;;;;;;5052912;28;20029;-60
2023/10/28 04:08:40;;;;;;;2.05;0.90;;;;;;;;;;5052619;28;20048;-60
2023/10/28 04:11:06;;;;;;;1.65;0.70;;;;;;;;;;5050974;28;20115;-61
2023/10/28 04:13:32;;;;;;;2.30;0.90;;;;;;;;;;5053262;28;20869;-61
2023/10/28 04:15:57;;;;;;;1.67;0.70;;;;;;;;;;5052276;28;20045;-61
2023/10/28 04:18:23;;;;;;;1.85;0.80;;;;;;;;;;5052397;28;20053;-60
2023/10/28 04:20:50;;;;;;;2.15;0.90;;;;;;;;;;5052271;28;20094;-61
2023/10/28 04:23:16;;;;;;;1.83;0.73;;;;;;;;;;5056156;28;20086;-60
2023/10/28 04:25:42;;;;;;;2.25;0.80;;;;;;;;;;5055782;28;20067;-60
2023/10/28 04:28:07;;;;;;;1.80;0.80;;;;;;;;;;5052726;28;20047;-59
2023/10/28 04:30:33;;;;;;;1.50;0.70;;;;;;;;;;5051451;28;20413;-59
2023/10/28 04:32:59;;;;;;;1.88;0.80;;;;;;;;;;5052775;28;20045;-60
2023/10/28 04:35:24;;;;;;;3.60;1.00;;;;;;;;;;5053086;28;20110;-60
2023/10/28 04:37:50;;;;;;;2.30;0.82;;;;;;;;;;5052915;28;20476;-59
2023/10/28 04:40:15;;;;;;;2.72;0.77;;;;;;;;;;5051935;28;20040;-60
2023/10/28 04:42:41;;;;;;;1.65;0.70;;;;;;;;;;5050932;28;20013;-60
2023/10/28 04:45:07;;;;;;;1.45;0.70;;;;;;;;;;5051091;28;20098;-61
2023/10/28 04:47:32;;;;;;;1.80;0.70;;;;;;;;;;5051529;28;20033;-61
2023/10/28 04:49:58;;;;;;;1.80;0.80;;;;;;;;;;5051837;28;20040;-61
2023/10/28 04:52:24;;;;;;;1.67;0.75;;;;;;;;;;5051105;28;20029;-61
2023/10/28 04:54:49;;;;;;;1.70;0.80;;;;;;;;;;5053022;28;20091;-60
2023/10/28 04:57:15;;;;;;;1.55;0.70;;;;;;;;;;5052679;28;20075;-61
2023/10/28 04:59:41;;;;;;;2.08;0.80;;;;;;;;;;5054861;28;20662;-60
2023/10/28 05:02:06;;;;;;;1.80;0.80;;;;;;;;;;5053022;28;20387;-60
2023/10/28 05:04:32;;;;;;;2.15;0.80;;;;;;;;;;5055524;28;20037;-61
2023/10/28 05:06:57;;;;;;;1.75;0.75;;;;;;;;;;5054603;28;20041;-60
2023/10/28 05:09:23;;;;;;;2.10;0.93;;;;;;;;;;5055585;28;20044;-61
2023/10/28 05:11:53;;;;;;;1.63;0.80;;;;;;;;;;5055168;28;20037;-61
2023/10/28 05:14:20;;;;;;;1.70;0.70;;;;;;;;;;5056014;28;20094;-61
2023/10/28 05:16:46;;;;;;;1.48;0.70;;;;;;;;;;5059565;28;20072;-61
2023/10/28 05:19:11;;;;;;;2.38;0.93;;;;;;;;;;5054964;28;20048;-61
2023/10/28 05:21:37;;;;;;;1.92;0.75;;;;;;;;;;5055589;28;20028;-60
2023/10/28 05:24:03;;;;;;;1.85;0.80;;;;;;;;;;5056308;28;20036;-60
2023/10/28 05:26:28;;;;;;;1.63;0.70;;;;;;;;;;5056865;28;20044;-60
2023/10/28 05:28:54;;;;;;;1.50;0.70;;;;;;;;;;5055767;28;20033;-60
2023/10/28 05:31:20;;;;;;;1.92;0.70;;;;;;;;;;5058535;28;20086;-60
2023/10/28 05:33:46;;;;;;;1.90;0.80;;;;;;;;;;5057584;28;20453;-60
2023/10/28 05:36:11;;;;;;;1.70;0.77;;;;;;;;;;5057357;28;20090;-60
2023/10/28 05:38:37;;;;;;;1.70;0.70;;;;;;;;;;5057581;28;20040;-60
2023/10/28 05:41:02;;;;;;;1.50;0.60;;;;;;;;;;5058144;28;20495;-62
2023/10/28 05:43:28;;;;;;;1.65;0.75;;;;;;;;;;5054419;28;20101;-61
2023/10/28 05:45:54;;;;;;;1.45;0.70;;;;;;;;;;5055237;28;20040;-60
2023/10/28 05:48:20;;;;;;;2.08;0.70;;;;;;;;;;5058469;28;20033;-60
2023/10/28 05:50:45;;;;;;;1.80;0.80;;;;;;;;;;5059482;28;20036;-61
2023/10/28 05:53:11;;;;;;;1.63;0.80;;;;;;;;;;5056753;28;20093;-59
2023/10/28 05:55:36;;;;;;;1.80;0.77;;;;;;;;;;5056270;28;20094;-60
2023/10/28 05:58:02;;;;;;;2.13;0.90;;;;;;;;;;5055827;28;20071;-60
2023/10/28 06:00:28;;;;;;;1.60;0.70;;;;;;;;;;5055908;28;20037;-60
2023/10/28 06:02:54;;;;;;;1.90;0.70;;;;;;;;;;5058492;28;20057;-61
2023/10/28 06:05:19;;;;;;;1.92;0.70;;;;;;;;;;5058456;28;20090;-60
2023/10/28 06:07:47;;;;;;;1.52;0.70;;;;;;;;;;5054757;28;20586;-61
2023/10/28 06:10:13;;;;;;;1.60;0.70;;;;;;;;;;5054923;28;20080;-60
2023/10/28 06:12:39;;;;;;;2.05;0.70;;;;;;;;;;5054469;28;20655;-61
2023/10/28 06:15:04;;;;;;;2.10;0.80;;;;;;;;;;5056102;28;20037;-61
2023/10/28 06:17:30;;;;;;;1.85;0.70;;;;;;;;;;5056062;28;20028;-60
2023/10/28 06:19:56;;;;;;;1.75;0.70;;;;;;;;;;5057952;28;20396;-60
2023/10/28 06:22:21;;;;;;;1.85;0.80;;;;;;;;;;5057129;28;20036;-60
2023/10/28 06:24:49;;;;;;;2.30;1.00;;;;;;;;;;5057795;28;20119;-61
2023/10/28 06:27:14;;;;;;;1.65;0.80;;;;;;;;;;5055386;28;20079;-61
2023/10/28 06:29:40;;;;;;;2.28;0.85;;;;;;;;;;5055373;28;20041;-61
2023/10/28 06:32:09;;;;;;;1.48;0.70;;;;;;;;;;5057999;28;20098;-60
2023/10/28 06:34:35;;;;;;;1.60;0.60;;;;;;;;;;5056389;28;20561;-61
2023/10/28 06:37:01;;;;;;;1.55;0.60;;;;;;;;;;5056381;28;20132;-60
2023/10/28 06:39:26;;;;;;;2.40;0.90;;;;;;;;;;5054899;28;20106;-60
2023/10/28 06:41:52;;;;;;;1.40;0.73;;;;;;;;;;5058226;28;20028;-60
2023/10/28 06:44:20;;;;;;;2.45;0.70;;;;;;;;;;5058420;28;20488;-59
2023/10/28 06:46:45;;;;;;;2.80;0.90;;;;;;;;;;5056923;28;20079;-59
2023/10/28 06:49:11;;;;;;;1.63;0.70;;;;;;;;;;5056312;28;20032;-61
2023/10/28 06:51:37;;;;;;;1.55;0.70;;;;;;;;;;5060147;28;20406;-61
2023/10/28 06:54:04;;;;;;;1.85;0.70;;;;;;;;;;5057018;28;20077;-60
2023/10/28 06:56:30;;;;;;;1.63;0.65;;;;;;;;;;5055206;28;20065;-61
2023/10/28 06:58:55;;;;;;;2.05;0.80;;;;;;;;;;5057673;28;20052;-61
2023/10/28 07:01:21;;;;;;;1.95;0.77;;;;;;;;;;5055834;28;20033;-61
2023/10/28 07:03:47;;;;;;;5.32;0.85;;;;;;;;;;5056375;28;20032;-60
2023/10/28 07:06:17;;;;;;;1.77;0.85;;;;;;;;;;5055439;28;20068;-62
2023/10/28 07:08:43;;;;;;;2.03;0.90;;;;;;;;;;5053606;28;20068;-61
2023/10/28 07:11:11;;;;;;;4.07;1.40;;;;;;;;;;5053080;28;20063;-62
2023/10/28 07:13:36;;;;;;;2.63;0.93;;;;;;;;;;5054527;28;20060;-61
2023/10/28 07:16:03;;;;;;;2.03;1.00;;;;;;;;;;5054353;28;20115;-61
2023/10/28 07:18:31;;;;;;;2.20;1.10;;;;;;;;;;5058236;28;20520;-60
2023/10/28 07:20:57;;;;;;;1.95;0.90;;;;;;;;;;5052091;28;20057;-60
2023/10/28 07:23:26;;;;;;;3.25;1.10;;;;;;;;;;5055081;28;20025;-61
2023/10/28 07:25:55;;;;;;;3.83;0.90;;;;;;;;;;5051383;28;20575;-61
2023/10/28 07:28:20;;;;;;;2.00;0.80;;;;;;;;;;5051986;28;20281;-61
2023/10/28 07:30:50;;;;;;;2.42;0.85;;;;;;;;;;5052156;28;20576;-61
2023/10/28 07:33:20;;;;;;;2.05;1.00;;;;;;;;;;5053279;28;20529;-61
2023/10/28 07:35:47;;;;;;;3.50;0.93;;;;;;;;;;5051051;28;20056;-61
2023/10/28 07:38:13;;;;;;;2.50;1.05;;;;;;;;;;5055851;28;20067;-61
2023/10/28 07:40:42;;;;;;;2.00;0.77;;;;;;;;;;5049810;28;20061;-59
2023/10/28 07:43:10;;;;;;;2.25;0.98;;;;;;;;;;5052192;28;20075;-62
2023/10/28 07:45:35;;;;;;;3.20;0.80;;;;;;;;;;5054868;28;20068;-60
2023/10/28 07:48:01;;;;;;;6.13;1.20;;;;;;;;;;5048791;28;20033;-60
2023/10/28 07:50:26;;;;;;;6.30;0.98;;;;;;;;;;5049716;28;20041;-61
2023/10/28 07:52:52;;;;;;;1.52;0.63;;;;;;;;;;5046154;28;20109;-61
2023/10/28 07:55:18;;;;;;;2.50;0.90;;;;;;;;;;5047091;28;20101;-61
2023/10/28 07:57:46;;;;;;;4.75;1.00;;;;;;;;;;5052193;28;20045;-61
2023/10/28 08:00:13;;;;;;;2.22;0.90;;;;;;;;;;5050377;28;20068;-61
2023/10/28 08:02:42;;;;;;;4.43;1.20;;;;;;;;;;5049079;28;20068;-61
2023/10/28 08:05:09;;;;;;;10.40;1.17;;;;;;;;;;5049409;28;20065;-61
2023/10/28 08:07:36;;;;;;;3.45;0.70;;;;;;;;;;5052233;28;20068;-62
2023/10/28 08:10:02;;;;;;;2.47;0.82;;;;;;;;;;5052146;28;20145;-61
2023/10/28 08:12:27;;;;;;;2.00;0.90;;;;;;;;;;5049471;28;20068;-61
2023/10/28 08:14:53;;;;;;;1.83;0.75;;;;;;;;;;5052374;28;20040;-61
2023/10/28 08:17:18;;;;;;;1.48;0.63;;;;;;;;;;5054084;28;20029;-60
2023/10/28 08:19:44;;;;;;;2.25;0.80;;;;;;;;;;5052008;28;20090;-61
2023/10/28 08:22:12;;;;;;;1.65;0.70;;;;;;;;;;5051803;28;20133;-60
2023/10/28 08:24:37;;;;;;;2.75;1.00;;;;;;;;;;5050092;28;20064;-60
2023/10/28 08:27:03;;;;;;;3.40;0.80;;;;;;;;;;5053838;28;20049;-61
2023/10/28 08:29:29;;;;;;;4.47;0.80;;;;;;;;;;5053123;28;20460;-61
2023/10/28 08:31:54;;;;;;;4.03;0.70;;;;;;;;;;5053973;28;20484;-61
2023/10/28 08:34:20;;;;;;;2.05;0.73;;;;;;;;;;5049069;28;20040;-61
2023/10/28 08:36:45;;;;;;;3.00;1.05;;;;;;;;;;5052881;28;20063;-60
2023/10/28 08:39:13;;;;;;;1.45;0.60;;;;;;;;;;5049783;28;20037;-60
2023/10/28 08:41:39;;;;;;;4.43;0.80;;;;;;;;;;5053552;28;20074;-61
2023/10/28 08:44:06;;;;;;;4.80;1.00;;;;;;;;;;5055533;28;20045;-61
2023/10/28 08:46:32;;;;;;;3.22;1.13;;;;;;;;;;5055127;28;20519;-61
2023/10/28 08:48:58;;;;;;;3.72;0.82;;;;;;;;;;5060247;28;20044;-61
2023/10/28 08:51:24;;;;;;;1.80;0.80;;;;;;;;;;5056285;28;20056;-59
2023/10/28 08:53:54;;;;;;;1.85;0.70;;;;;;;;;;5060274;28;20072;-61
2023/10/28 08:56:22;;;;;;;7.38;1.00;;;;;;;;;;5057053;28;20067;-60
2023/10/28 08:58:50;;;;;;;2.40;0.70;;;;;;;;;;5054854;28;20494;-62
2023/10/28 09:01:17;;;;;;;5.53;0.82;;;;;;;;;;5055016;28;20079;-61
2023/10/28 09:03:43;;;;;;;5.13;1.23;;;;;;;;;;5051855;28;20068;-62
2023/10/28 09:06:09;;;;;;;3.42;1.13;;;;;;;;;;5052969;28;20629;-61
2023/10/28 09:08:35;;;;;;;8.00;1.08;;;;;;;;;;5055484;28;20085;-60
2023/10/28 09:11:00;;;;;;;5.60;1.40;;;;;;;;;;5058514;28;20091;-59
2023/10/28 09:13:26;;;;;;;5.63;0.90;;;;;;;;;;5058225;28;20070;-61
2023/10/28 09:15:52;;;;;;;5.43;1.17;;;;;;;;;;5058531;28;20552;-61
2023/10/28 09:18:18;;;;;;;7.75;1.52;;;;;;;;;;5059482;28;20048;-60
2023/10/28 09:20:44;;;;;;;2.95;1.10;;;;;;;;;;5057931;28;20510;-61
2023/10/28 09:23:13;;;;;;;4.95;1.13;;;;;;;;;;5055821;28;20048;-60
2023/10/28 09:25:39;;;;;;;6.25;1.50;;;;;;;;;;5057756;28;20061;-60
2023/10/28 09:28:13;;;;;;;10.23;1.60;;;;;;;;;;5057020;28;20516;-60
2023/10/28 09:30:46;;;;;;;6.50;2.17;;;;;;;;;;5052900;28;20069;-60
2023/10/28 09:33:12;;;;;;;7.63;1.50;;;;;;;;;;5055515;28;20078;-60
2023/10/28 09:35:39;;;;;;;8.68;1.92;;;;;;;;;;5056115;28;20527;-60
2023/10/28 09:38:05;;;;;;;9.48;1.80;;;;;;;;;;5058450;28;20068;-60
2023/10/28 09:40:31;;;;;;;4.95;1.70;;;;;;;;;;5058155;28;20060;-60
2023/10/28 09:42:57;;;;;;;5.07;1.63;;;;;;;;;;5057164;28;20040;-61
2023/10/28 09:45:23;;;;;;;6.05;1.73;;;;;;;;;;5055123;28;20540;-60
2023/10/28 09:47:53;;;;;;;4.65;2.08;;;;;;;;;;5057118;28;20119;-61
2023/10/28 09:50:20;;;;;;;9.63;2.15;;;;;;;;;;5051807;28;20056;-61
2023/10/28 09:52:48;;;;;;;5.05;2.40;;;;;;;;;;5053048;28;20064;-60
2023/10/28 09:55:14;;;;;;;5.82;2.70;;;;;;;;;;5054852;28;20094;-61
2023/10/28 09:57:40;;;;;;;5.30;2.65;;;;;;;;;;5055868;28;21579;-61
2023/10/28 10:00:09;;;;;;;5.13;2.47;;;;;;;;;;5057560;28;20047;-60
2023/10/28 10:02:41;;;;;;;3.92;1.52;;;;;;;;;;5055373;28;20075;-62
2023/10/28 10:05:19;;;;;;;5.10;2.88;;;;;;;;;;5056412;28;20068;-61
2023/10/28 10:07:45;;;;;;;7.00;2.22;;;;;;;;;;5057599;28;20056;-62
2023/10/28 10:10:19;;;;;;;3.95;1.67;;;;;;;;;;5057760;28;20076;-61
2023/10/28 10:12:45;;;;;;;3.92;1.83;;;;;;;;;;5059656;28;20056;-61
2023/10/28 10:15:13;;;;;;;5.07;1.73;;;;;;;;;;5053093;28;20516;-61
2023/10/28 10:17:55;;;;;;;6.13;1.95;;;;;;;;;;5053700;28;20056;-59
2023/10/28 10:20:25;;;;;;;6.97;1.80;;;;;;;;;;5051806;28;20188;-59
2023/10/28 10:22:58;;;;;;;4.57;1.55;;;;;;;;;;5053290;28;20060;-60
2023/10/28 10:25:50;;;;;;;5.60;1.60;;;;;;;;;;5052386;28;20529;-60
2023/10/28 10:28:19;;;;;;;3.80;1.33;;;;;;;;;;5050526;28;20092;-61
2023/10/28 10:30:44;;;;;;;4.00;1.65;;;;;;;;;;5050879;28;20064;-61
2023/10/28 10:33:10;;;;;;;6.97;1.83;;;;;;;;;;5052864;28;20079;-60
2023/10/28 10:35:36;;;;;;;3.75;1.60;;;;;;;;;;5056306;28;20029;-61
2023/10/28 10:38:11;;;;;;;6.80;1.80;;;;;;;;;;5054176;28;20071;-61
2023/10/28 10:40:52;;;;;;;3.53;1.40;;;;;;;;;;5053207;28;20066;-61
2023/10/28 10:43:21;;;;;;;6.35;1.70;;;;;;;;;;5051605;28;20025;-61
2023/10/28 10:45:47;;;;;;;5.07;1.52;;;;;;;;;;5055330;28;20080;-61
2023/10/28 10:48:13;;;;;;;3.67;1.23;;;;;;;;;;5050937;28;21051;-62
2023/10/28 10:50:40;;;;;;;6.90;1.60;;;;;;;;;;5052641;28;20045;-61
2023/10/28 10:53:05;;;;;;;3.33;1.50;;;;;;;;;;5053240;28;20071;-61
2023/10/28 10:55:31;;;;;;;5.50;1.92;;;;;;;;;;5050877;28;20033;-60
2023/10/28 10:57:57;;;;;;;2.72;1.38;;;;;;;;;;5052111;28;20037;-60
2023/10/28 11:00:23;;;;;;;6.47;1.90;;;;;;;;;;5050999;28;20132;-61
2023/10/28 11:02:49;;;;;;;5.32;1.85;;;;;;;;;;5050558;28;20064;-60
2023/10/28 11:05:15;;;;;;;3.25;1.35;;;;;;;;;;5051032;28;20063;-60
2023/10/28 11:07:42;;;;;;;5.30;1.95;;;;;;;;;;5051463;28;20512;-61
2023/10/28 11:10:10;;;;;;;3.50;1.48;;;;;;;;;;5051884;28;20107;-61
2023/10/28 11:12:36;;;;;;;4.45;1.65;;;;;;;;;;5051305;28;21457;-60
2023/10/28 11:15:03;;;;;;;5.15;1.65;;;;;;;;;;5055396;28;20118;-61
2023/10/28 11:17:29;;;;;;;4.82;1.55;;;;;;;;;;5052656;28;20076;-59
2023/10/28 11:19:56;;;;;;;6.88;1.80;;;;;;;;;;5051224;28;20516;-60
2023/10/28 11:22:22;;;;;;;5.80;1.80;;;;;;;;;;5047613;28;20055;-60
2023/10/28 11:24:53;;;;;;;4.35;1.55;;;;;;;;;;5051941;28;20044;-60
2023/10/28 11:27:19;;;;;;;3.90;1.50;;;;;;;;;;5053931;28;20137;-60
2023/10/28 11:29:46;;;;;;;3.55;1.73;;;;;;;;;;5051599;28;20045;-60
2023/10/28 11:32:12;;;;;;;4.35;1.77;;;;;;;;;;5050318;28;20056;-59
2023/10/28 11:34:39;;;;;;;5.25;1.40;;;;;;;;;;5050390;28;20090;-61
2023/10/28 11:37:11;;;;;;;4.07;1.58;;;;;;;;;;5052167;28;20063;-60
2023/10/28 11:39:41;;;;;;;5.00;1.50;;;;;;;;;;5052069;28;20082;-61
2023/10/28 11:42:08;;;;;;;2.90;1.33;;;;;;;;;;5049333;28;20064;-59
2023/10/28 11:44:34;;;;;;;3.65;1.45;;;;;;;;;;5052851;28;20065;-62
2023/10/28 11:46:59;;;;;;;3.05;1.48;;;;;;;;;;5051097;28;21149;-61
2023/10/28 11:49:25;;;;;;;4.43;1.67;;;;;;;;;;5048080;28;20033;-62
2023/10/28 11:51:51;;;;;;;3.53;1.20;;;;;;;;;;5049283;28;20044;-60
2023/10/28 11:54:17;;;;;;;5.25;1.38;;;;;;;;;;5052744;28;20578;-61
2023/10/28 11:56:43;;;;;;;4.47;1.30;;;;;;;;;;5050631;28;20036;-61
2023/10/28 11:59:09;;;;;;;4.03;1.48;;;;;;;;;;5051585;28;20048;-61
2023/10/28 12:01:36;;;;;;;5.85;1.73;;;;;;;;;;5036655;28;20033;-61
2023/10/28 12:04:03;;;;;;;2.90;1.20;;;;;;;;;;5055182;28;20106;-61
2023/10/28 12:06:29;;;;;;;2.78;1.27;;;;;;;;;;5054061;28;20072;-61
2023/10/28 12:08:57;;;;;;;5.85;1.75;;;;;;;;;;5051425;28;20803;-62
2023/10/28 12:11:23;;;;;;;3.30;1.42;;;;;;;;;;5055405;28;20064;-62
2023/10/28 12:13:48;;;;;;;3.63;1.40;;;;;;;;;;5056314;28;20040;-62
2023/10/28 12:16:15;;;;;;;3.35;1.38;;;;;;;;;;5054251;28;20103;-61
2023/10/28 12:18:40;;;;;;;3.53;1.50;;;;;;;;;;5055365;28;20057;-61
2023/10/28 12:21:07;;;;;;;6.13;1.30;;;;;;;;;;5058678;28;20114;-63
2023/10/28 12:23:33;;;;;;;2.75;1.27;;;;;;;;;;5056265;28;20064;-60
2023/10/28 12:25:58;;;;;;;3.85;1.45;;;;;;;;;;5057091;28;20055;-62
2023/10/28 12:28:24;;;;;;;3.85;1.30;;;;;;;;;;5056424;28;20044;-62
2023/10/28 12:30:51;;;;;;;3.42;1.33;;;;;;;;;;5058630;28;20478;-61
2023/10/28 12:33:16;;;;;;;3.35;1.40;;;;;;;;;;5055928;28;20079;-61
2023/10/28 12:35:42;;;;;;;4.35;1.60;;;;;;;;;;5055334;28;20040;-61
2023/10/28 12:38:08;;;;;;;4.00;1.50;;;;;;;;;;5054239;28;20063;-61
2023/10/28 12:40:33;;;;;;;5.88;1.35;;;;;;;;;;5058160;28;20036;-61
2023/10/28 12:42:59;;;;;;;9.70;1.70;;;;;;;;;;5055383;28;20502;-61
2023/10/28 12:45:25;;;;;;;3.38;1.27;;;;;;;;;;5051995;28;20102;-61
2023/10/28 12:47:50;;;;;;;2.72;1.30;;;;;;;;;;5056561;28;20067;-60
2023/10/28 12:50:17;;;;;;;3.63;1.40;;;;;;;;;;5056019;28;20036;-61
2023/10/28 12:52:43;;;;;;;3.30;1.38;;;;;;;;;;5060163;28;20080;-62
2023/10/28 12:55:08;;;;;;;2.72;1.10;;;;;;;;;;5052801;28;20029;-60
2023/10/28 12:57:34;;;;;;;2.80;1.33;;;;;;;;;;5055645;28;20032;-61
2023/10/28 13:00:00;;;;;;;4.20;1.42;;;;;;;;;;5057426;28;20048;-62
2023/10/28 13:02:25;;;;;;;2.70;1.20;;;;;;;;;;5055956;28;20448;-60
2023/10/28 13:04:51;;;;;;;4.68;1.40;;;;;;;;;;5053803;28;20113;-60
2023/10/28 13:07:16;;;;;;;3.38;1.17;;;;;;;;;;5055377;28;20050;-62
2023/10/28 13:09:42;;;;;;;2.50;1.20;;;;;;;;;;5054054;28;20612;-61
2023/10/28 13:12:10;;;;;;;4.60;1.30;;;;;;;;;;5054595;28;20044;-62
2023/10/28 13:14:36;;;;;;;2.35;0.90;;;;;;;;;;5053572;28;20072;-62
2023/10/28 13:17:02;;;;;;;5.70;1.38;;;;;;;;;;5057534;28;20059;-61
2023/10/28 13:19:29;;;;;;;4.20;1.40;;;;;;;;;;5053084;28;20045;-61
2023/10/28 13:21:54;;;;;;;3.35;1.20;;;;;;;;;;5054385;28;20059;-61
2023/10/28 13:24:20;;;;;;;3.08;1.10;;;;;;;;;;5057172;28;20171;-61
2023/10/28 13:26:48;;;;;;;4.25;1.30;;;;;;;;;;5061676;28;20894;-62
2023/10/28 13:29:14;;;;;;;4.50;1.60;;;;;;;;;;5057446;28;20068;-62
2023/10/28 13:31:39;;;;;;;6.80;1.42;;;;;;;;;;5055745;28;20077;-62
2023/10/28 13:34:06;;;;;;;3.08;1.20;;;;;;;;;;5059837;28;20045;-61
2023/10/28 13:36:32;;;;;;;5.88;1.17;;;;;;;;;;5060331;28;20068;-61
2023/10/28 13:38:57;;;;;;;3.05;1.20;;;;;;;;;;5058026;28;20420;-62
2023/10/28 13:41:24;;;;;;;2.85;1.13;;;;;;;;;;5057697;28;20062;-61
2023/10/28 13:43:49;;;;;;;3.65;1.45;;;;;;;;;;5056032;28;20059;-61
2023/10/28 13:46:16;;;;;;;3.88;1.25;;;;;;;;;;5057712;28;20024;-60
2023/10/28 13:48:41;;;;;;;4.78;1.50;;;;;;;;;;5059127;28;20173;-61
2023/10/28 13:51:07;;;;;;;3.92;1.30;;;;;;;;;;5058340;28;20506;-62
2023/10/28 13:53:32;;;;;;;4.78;1.58;;;;;;;;;;5056456;28;20084;-62
2023/10/28 13:55:58;;;;;;;3.72;1.38;;;;;;;;;;5057297;28;20044;-61
2023/10/28 13:58:24;;;;;;;3.63;1.17;;;;;;;;;;5057721;28;20827;-62
2023/10/28 14:00:50;;;;;;;3.75;1.60;;;;;;;;;;5056484;28;20074;-62
2023/10/28 14:03:17;;;;;;;3.00;1.48;;;;;;;;;;5056453;28;20029;-61
2023/10/28 14:05:43;;;;;;;5.03;1.20;;;;;;;;;;5054873;28;20071;-62
2023/10/28 14:08:10;;;;;;;8.13;1.50;;;;;;;;;;5059442;28;20533;-62
2023/10/28 14:10:36;;;;;;;3.80;1.33;;;;;;;;;;5058307;28;20084;-61
2023/10/28 14:13:01;;;;;;;5.40;1.60;;;;;;;;;;5054092;28;20072;-62
2023/10/28 14:15:27;;;;;;;3.63;1.40;;;;;;;;;;5056356;28;20086;-61
2023/10/28 14:17:52;;;;;;;4.82;1.60;;;;;;;;;;5054885;28;20036;-61
2023/10/28 14:20:18;;;;;;;3.55;1.40;;;;;;;;;;5057717;28;20093;-62
2023/10/28 14:22:44;;;;;;;3.70;1.58;;;;;;;;;;5052746;28;20517;-61
2023/10/28 14:25:10;;;;;;;5.95;1.50;;;;;;;;;;5054973;28;20090;-61
2023/10/28 14:27:39;;;;;;;4.53;1.25;;;;;;;;;;5055971;28;20079;-62
2023/10/28 14:30:05;;;;;;;3.33;1.67;;;;;;;;;;5057044;28;20052;-61
2023/10/28 14:32:31;;;;;;;3.60;1.60;;;;;;;;;;5054797;28;20748;-60
2023/10/28 14:34:58;;;;;;;2.85;1.30;;;;;;;;;;5058722;28;20041;-61
2023/10/28 14:37:23;;;;;;;4.90;1.48;;;;;;;;;;5053601;28;20060;-60